sensor_id;sensor_type;location;lat;lon;timestamp;P1;durP1;ratioP1;P2;durP2;ratioP2
53108;SDS011;39007;53.090;6.074;2023-11-21T00:01:54;28.85;;;7.80;;
53108;SDS011;39007;53.090;6.074;2023-11-21T00:04:22;28.13;;;8.85;;
53108;SDS011;39007;53.090;6.074;2023-11-21T00:06:48;28.50;;;8.07;;
53108;SDS011;39007;53.090;6.074;2023-11-21T00:09:14;30.65;;;7.90;;
53108;SDS011;39007;53.090;6.074;2023-11-21T00:11:44;25.10;;;7.57;;
53108;SDS011;39007;53.090;6.074;2023-11-21T00:14:13;34.53;;;7.78;;
53108;SDS011;39007;53.090;6.074;2023-11-21T00:16:42;28.40;;;7.72;;
53108;SDS011;39007;53.090;6.074;2023-11-21T00:19:08;36.55;;;9.18;;
53108;SDS011;39007;53.090;6.074;2023-11-21T00:21:35;24.58;;;8.10;;
53108;SDS011;39007;53.090;6.074;2023-11-21T00:24:01;28.83;;;8.30;;
53108;SDS011;39007;53.090;6.074;2023-11-21T00:26:27;37.97;;;10.45;;
53108;SDS011;39007;53.090;6.074;2023-11-21T00:28:53;30.38;;;9.15;;
53108;SDS011;39007;53.090;6.074;2023-11-21T00:31:19;32.72;;;8.75;;
53108;SDS011;39007;53.090;6.074;2023-11-21T00:33:45;35.55;;;9.68;;
53108;SDS011;39007;53.090;6.074;2023-11-21T00:36:12;35.50;;;9.65;;
53108;SDS011;39007;53.090;6.074;2023-11-21T00:38:38;40.30;;;9.43;;
53108;SDS011;39007;53.090;6.074;2023-11-21T00:41:05;29.20;;;9.45;;
53108;SDS011;39007;53.090;6.074;2023-11-21T00:43:31;40.67;;;9.63;;
53108;SDS011;39007;53.090;6.074;2023-11-21T00:46:03;37.15;;;9.02;;
53108;SDS011;39007;53.090;6.074;2023-11-21T00:48:32;35.42;;;9.50;;
53108;SDS011;39007;53.090;6.074;2023-11-21T00:50:58;35.92;;;10.27;;
53108;SDS011;39007;53.090;6.074;2023-11-21T00:53:25;31.90;;;9.15;;
53108;SDS011;39007;53.090;6.074;2023-11-21T00:55:51;35.25;;;9.40;;
53108;SDS011;39007;53.090;6.074;2023-11-21T00:58:22;27.73;;;9.57;;
53108;SDS011;39007;53.090;6.074;2023-11-21T01:00:48;40.13;;;9.70;;
53108;SDS011;39007;53.090;6.074;2023-11-21T01:03:14;31.98;;;9.75;;
53108;SDS011;39007;53.090;6.074;2023-11-21T01:05:40;34.17;;;8.98;;
53108;SDS011;39007;53.090;6.074;2023-11-21T01:08:07;30.40;;;9.73;;
53108;SDS011;39007;53.090;6.074;2023-11-21T01:10:33;45.75;;;11.48;;
53108;SDS011;39007;53.090;6.074;2023-11-21T01:12:59;39.05;;;10.30;;
53108;SDS011;39007;53.090;6.074;2023-11-21T01:15:25;36.05;;;10.32;;
53108;SDS011;39007;53.090;6.074;2023-11-21T01:17:51;37.40;;;9.98;;
53108;SDS011;39007;53.090;6.074;2023-11-21T01:20:18;39.28;;;10.18;;
53108;SDS011;39007;53.090;6.074;2023-11-21T01:22:44;31.90;;;9.73;;
53108;SDS011;39007;53.090;6.074;2023-11-21T01:25:10;29.33;;;9.35;;
53108;SDS011;39007;53.090;6.074;2023-11-21T01:27:36;37.58;;;10.30;;
53108;SDS011;39007;53.090;6.074;2023-11-21T01:30:02;29.17;;;9.15;;
53108;SDS011;39007;53.090;6.074;2023-11-21T01:32:29;36.35;;;10.23;;
53108;SDS011;39007;53.090;6.074;2023-11-21T01:34:55;26.90;;;8.88;;
53108;SDS011;39007;53.090;6.074;2023-11-21T01:37:21;33.30;;;10.48;;
53108;SDS011;39007;53.090;6.074;2023-11-21T01:39:48;34.10;;;10.65;;
53108;SDS011;39007;53.090;6.074;2023-11-21T01:42:14;22.85;;;8.30;;
53108;SDS011;39007;53.090;6.074;2023-11-21T01:44:40;26.98;;;9.68;;
53108;SDS011;39007;53.090;6.074;2023-11-21T01:47:06;32.03;;;9.68;;
53108;SDS011;39007;53.090;6.074;2023-11-21T01:49:34;31.17;;;9.65;;
53108;SDS011;39007;53.090;6.074;2023-11-21T01:52:00;23.88;;;10.25;;
53108;SDS011;39007;53.090;6.074;2023-11-21T01:54:27;29.02;;;10.35;;
53108;SDS011;39007;53.090;6.074;2023-11-21T01:56:59;22.88;;;8.70;;
53108;SDS011;39007;53.090;6.074;2023-11-21T01:59:35;16.10;;;8.02;;
53108;SDS011;39007;53.090;6.074;2023-11-21T02:02:05;31.45;;;10.20;;
53108;SDS011;39007;53.090;6.074;2023-11-21T02:04:32;18.55;;;8.40;;
53108;SDS011;39007;53.090;6.074;2023-11-21T02:06:58;29.25;;;9.55;;
53108;SDS011;39007;53.090;6.074;2023-11-21T02:09:27;24.40;;;9.18;;
53108;SDS011;39007;53.090;6.074;2023-11-21T02:11:55;21.67;;;7.72;;
53108;SDS011;39007;53.090;6.074;2023-11-21T02:14:21;15.45;;;7.82;;
53108;SDS011;39007;53.090;6.074;2023-11-21T02:16:50;17.23;;;7.78;;
53108;SDS011;39007;53.090;6.074;2023-11-21T02:19:20;20.13;;;8.25;;
53108;SDS011;39007;53.090;6.074;2023-11-21T02:21:53;22.17;;;7.75;;
53108;SDS011;39007;53.090;6.074;2023-11-21T02:24:21;17.65;;;7.25;;
53108;SDS011;39007;53.090;6.074;2023-11-21T02:26:47;21.80;;;7.97;;
53108;SDS011;39007;53.090;6.074;2023-11-21T02:29:14;17.92;;;8.23;;
53108;SDS011;39007;53.090;6.074;2023-11-21T02:31:43;16.08;;;8.07;;
53108;SDS011;39007;53.090;6.074;2023-11-21T02:34:13;25.38;;;8.80;;
53108;SDS011;39007;53.090;6.074;2023-11-21T02:36:40;16.83;;;7.13;;
53108;SDS011;39007;53.090;6.074;2023-11-21T02:39:07;16.67;;;7.75;;
53108;SDS011;39007;53.090;6.074;2023-11-21T02:41:33;13.85;;;7.38;;
53108;SDS011;39007;53.090;6.074;2023-11-21T02:44:00;14.43;;;6.55;;
53108;SDS011;39007;53.090;6.074;2023-11-21T02:46:26;22.40;;;7.43;;
53108;SDS011;39007;53.090;6.074;2023-11-21T02:48:52;22.20;;;8.10;;
53108;SDS011;39007;53.090;6.074;2023-11-21T02:51:19;15.30;;;7.90;;
53108;SDS011;39007;53.090;6.074;2023-11-21T02:53:46;21.25;;;7.47;;
53108;SDS011;39007;53.090;6.074;2023-11-21T02:56:12;18.05;;;7.93;;
53108;SDS011;39007;53.090;6.074;2023-11-21T02:58:41;16.13;;;7.20;;
53108;SDS011;39007;53.090;6.074;2023-11-21T03:01:09;16.20;;;7.10;;
53108;SDS011;39007;53.090;6.074;2023-11-21T03:03:36;18.45;;;8.02;;
53108;SDS011;39007;53.090;6.074;2023-11-21T03:06:05;10.90;;;6.38;;
53108;SDS011;39007;53.090;6.074;2023-11-21T03:08:31;17.95;;;7.03;;
53108;SDS011;39007;53.090;6.074;2023-11-21T03:10:58;12.70;;;6.60;;
53108;SDS011;39007;53.090;6.074;2023-11-21T03:13:24;16.55;;;7.07;;
53108;SDS011;39007;53.090;6.074;2023-11-21T03:15:50;10.65;;;6.32;;
53108;SDS011;39007;53.090;6.074;2023-11-21T03:18:17;18.60;;;7.10;;
53108;SDS011;39007;53.090;6.074;2023-11-21T03:20:43;13.43;;;6.55;;
53108;SDS011;39007;53.090;6.074;2023-11-21T03:23:12;12.82;;;5.95;;
53108;SDS011;39007;53.090;6.074;2023-11-21T03:25:38;10.25;;;6.38;;
53108;SDS011;39007;53.090;6.074;2023-11-21T03:28:04;20.73;;;8.32;;
53108;SDS011;39007;53.090;6.074;2023-11-21T03:30:31;13.27;;;6.53;;
53108;SDS011;39007;53.090;6.074;2023-11-21T03:32:57;14.90;;;7.30;;
53108;SDS011;39007;53.090;6.074;2023-11-21T03:35:23;18.05;;;6.88;;
53108;SDS011;39007;53.090;6.074;2023-11-21T03:37:49;12.32;;;7.07;;
53108;SDS011;39007;53.090;6.074;2023-11-21T03:40:15;13.43;;;6.97;;
53108;SDS011;39007;53.090;6.074;2023-11-21T03:42:42;14.57;;;7.18;;
53108;SDS011;39007;53.090;6.074;2023-11-21T03:45:08;14.65;;;7.20;;
53108;SDS011;39007;53.090;6.074;2023-11-21T03:47:34;14.57;;;7.93;;
53108;SDS011;39007;53.090;6.074;2023-11-21T03:50:00;18.98;;;7.78;;
53108;SDS011;39007;53.090;6.074;2023-11-21T03:52:26;23.33;;;8.88;;
53108;SDS011;39007;53.090;6.074;2023-11-21T03:54:53;14.82;;;8.23;;
53108;SDS011;39007;53.090;6.074;2023-11-21T03:57:20;17.08;;;8.82;;
53108;SDS011;39007;53.090;6.074;2023-11-21T03:59:46;14.55;;;8.18;;
53108;SDS011;39007;53.090;6.074;2023-11-21T04:02:12;15.07;;;8.52;;
53108;SDS011;39007;53.090;6.074;2023-11-21T04:04:39;19.55;;;9.27;;
53108;SDS011;39007;53.090;6.074;2023-11-21T04:07:05;20.63;;;10.32;;
53108;SDS011;39007;53.090;6.074;2023-11-21T04:09:32;23.48;;;9.70;;
53108;SDS011;39007;53.090;6.074;2023-11-21T04:11:58;21.20;;;9.98;;
53108;SDS011;39007;53.090;6.074;2023-11-21T04:14:24;22.25;;;10.70;;
53108;SDS011;39007;53.090;6.074;2023-11-21T04:16:50;16.13;;;9.18;;
53108;SDS011;39007;53.090;6.074;2023-11-21T04:19:16;19.13;;;10.07;;
53108;SDS011;39007;53.090;6.074;2023-11-21T04:21:42;19.08;;;9.05;;
53108;SDS011;39007;53.090;6.074;2023-11-21T04:24:09;25.15;;;11.55;;
53108;SDS011;39007;53.090;6.074;2023-11-21T04:26:35;19.02;;;10.20;;
53108;SDS011;39007;53.090;6.074;2023-11-21T04:29:01;16.73;;;9.18;;
53108;SDS011;39007;53.090;6.074;2023-11-21T04:31:27;18.00;;;9.18;;
53108;SDS011;39007;53.090;6.074;2023-11-21T04:33:54;17.20;;;9.80;;
53108;SDS011;39007;53.090;6.074;2023-11-21T04:36:20;21.33;;;9.85;;
53108;SDS011;39007;53.090;6.074;2023-11-21T04:38:46;16.88;;;9.25;;
53108;SDS011;39007;53.090;6.074;2023-11-21T04:41:12;19.73;;;9.52;;
53108;SDS011;39007;53.090;6.074;2023-11-21T04:43:38;19.42;;;10.32;;
53108;SDS011;39007;53.090;6.074;2023-11-21T04:46:04;18.45;;;9.77;;
53108;SDS011;39007;53.090;6.074;2023-11-21T04:48:32;21.63;;;11.20;;
53108;SDS011;39007;53.090;6.074;2023-11-21T04:50:58;18.20;;;10.77;;
53108;SDS011;39007;53.090;6.074;2023-11-21T04:53:24;22.17;;;11.43;;
53108;SDS011;39007;53.090;6.074;2023-11-21T04:55:50;31.15;;;14.02;;
53108;SDS011;39007;53.090;6.074;2023-11-21T04:58:16;29.50;;;14.95;;
53108;SDS011;39007;53.090;6.074;2023-11-21T05:00:44;25.05;;;13.77;;
53108;SDS011;39007;53.090;6.074;2023-11-21T05:03:10;30.27;;;16.70;;
53108;SDS011;39007;53.090;6.074;2023-11-21T05:05:37;27.67;;;15.07;;
53108;SDS011;39007;53.090;6.074;2023-11-21T05:08:03;31.90;;;15.43;;
53108;SDS011;39007;53.090;6.074;2023-11-21T05:10:30;31.33;;;16.73;;
53108;SDS011;39007;53.090;6.074;2023-11-21T05:12:56;45.33;;;19.05;;
53108;SDS011;39007;53.090;6.074;2023-11-21T05:15:23;32.00;;;16.60;;
53108;SDS011;39007;53.090;6.074;2023-11-21T05:17:50;33.53;;;17.27;;
53108;SDS011;39007;53.090;6.074;2023-11-21T05:20:17;34.78;;;16.60;;
53108;SDS011;39007;53.090;6.074;2023-11-21T05:22:49;26.63;;;15.32;;
53108;SDS011;39007;53.090;6.074;2023-11-21T05:25:15;33.92;;;15.38;;
53108;SDS011;39007;53.090;6.074;2023-11-21T05:27:43;26.77;;;13.98;;
53108;SDS011;39007;53.090;6.074;2023-11-21T05:30:10;28.25;;;15.02;;
53108;SDS011;39007;53.090;6.074;2023-11-21T05:32:37;28.88;;;16.58;;
53108;SDS011;39007;53.090;6.074;2023-11-21T05:35:03;34.80;;;16.50;;
53108;SDS011;39007;53.090;6.074;2023-11-21T05:37:34;28.63;;;15.15;;
53108;SDS011;39007;53.090;6.074;2023-11-21T05:40:01;34.65;;;16.25;;
53108;SDS011;39007;53.090;6.074;2023-11-21T05:42:34;29.05;;;14.35;;
53108;SDS011;39007;53.090;6.074;2023-11-21T05:45:00;31.48;;;15.00;;
53108;SDS011;39007;53.090;6.074;2023-11-21T05:47:40;30.92;;;14.52;;
53108;SDS011;39007;53.090;6.074;2023-11-21T05:50:07;27.60;;;13.38;;
53108;SDS011;39007;53.090;6.074;2023-11-21T05:52:40;25.05;;;13.45;;
53108;SDS011;39007;53.090;6.074;2023-11-21T05:55:07;27.70;;;13.45;;
53108;SDS011;39007;53.090;6.074;2023-11-21T05:57:33;25.25;;;13.10;;
53108;SDS011;39007;53.090;6.074;2023-11-21T06:00:06;25.27;;;12.85;;
53108;SDS011;39007;53.090;6.074;2023-11-21T06:02:40;22.33;;;11.38;;
53108;SDS011;39007;53.090;6.074;2023-11-21T06:05:07;25.98;;;11.73;;
53108;SDS011;39007;53.090;6.074;2023-11-21T06:07:33;21.90;;;11.55;;
53108;SDS011;39007;53.090;6.074;2023-11-21T06:10:01;25.77;;;12.32;;
53108;SDS011;39007;53.090;6.074;2023-11-21T06:12:28;24.13;;;12.20;;
53108;SDS011;39007;53.090;6.074;2023-11-21T06:14:54;22.15;;;12.50;;
53108;SDS011;39007;53.090;6.074;2023-11-21T06:17:21;23.08;;;12.30;;
53108;SDS011;39007;53.090;6.074;2023-11-21T06:19:49;23.63;;;13.05;;
53108;SDS011;39007;53.090;6.074;2023-11-21T06:22:17;30.33;;;13.73;;
53108;SDS011;39007;53.090;6.074;2023-11-21T06:24:44;21.85;;;12.93;;
53108;SDS011;39007;53.090;6.074;2023-11-21T06:27:10;26.60;;;13.10;;
53108;SDS011;39007;53.090;6.074;2023-11-21T06:29:36;23.23;;;12.88;;
53108;SDS011;39007;53.090;6.074;2023-11-21T06:32:02;20.10;;;13.15;;
53108;SDS011;39007;53.090;6.074;2023-11-21T06:34:30;21.95;;;13.25;;
53108;SDS011;39007;53.090;6.074;2023-11-21T06:36:56;26.70;;;14.10;;
53108;SDS011;39007;53.090;6.074;2023-11-21T06:39:22;25.38;;;14.60;;
53108;SDS011;39007;53.090;6.074;2023-11-21T06:41:49;27.60;;;15.18;;
53108;SDS011;39007;53.090;6.074;2023-11-21T06:44:15;27.00;;;16.08;;
53108;SDS011;39007;53.090;6.074;2023-11-21T06:46:41;26.33;;;15.38;;
53108;SDS011;39007;53.090;6.074;2023-11-21T06:49:08;31.80;;;17.58;;
53108;SDS011;39007;53.090;6.074;2023-11-21T06:51:34;34.22;;;16.58;;
53108;SDS011;39007;53.090;6.074;2023-11-21T06:54:00;24.52;;;15.00;;
53108;SDS011;39007;53.090;6.074;2023-11-21T06:56:26;28.67;;;16.02;;
53108;SDS011;39007;53.090;6.074;2023-11-21T06:58:52;28.73;;;17.23;;
53108;SDS011;39007;53.090;6.074;2023-11-21T07:01:19;29.23;;;16.60;;
53108;SDS011;39007;53.090;6.074;2023-11-21T07:03:45;27.88;;;16.13;;
53108;SDS011;39007;53.090;6.074;2023-11-21T07:06:11;27.95;;;15.73;;
53108;SDS011;39007;53.090;6.074;2023-11-21T07:08:37;28.40;;;16.48;;
53108;SDS011;39007;53.090;6.074;2023-11-21T07:11:04;30.40;;;16.98;;
53108;SDS011;39007;53.090;6.074;2023-11-21T07:13:30;28.40;;;16.27;;
53108;SDS011;39007;53.090;6.074;2023-11-21T07:15:57;26.13;;;15.55;;
53108;SDS011;39007;53.090;6.074;2023-11-21T07:18:23;27.65;;;16.55;;
53108;SDS011;39007;53.090;6.074;2023-11-21T07:20:50;28.63;;;15.25;;
53108;SDS011;39007;53.090;6.074;2023-11-21T07:23:17;27.95;;;15.02;;
53108;SDS011;39007;53.090;6.074;2023-11-21T07:25:43;25.33;;;13.77;;
53108;SDS011;39007;53.090;6.074;2023-11-21T07:28:09;25.42;;;14.40;;
53108;SDS011;39007;53.090;6.074;2023-11-21T07:30:35;31.13;;;16.20;;
53108;SDS011;39007;53.090;6.074;2023-11-21T07:33:02;30.52;;;16.67;;
53108;SDS011;39007;53.090;6.074;2023-11-21T07:35:29;29.38;;;17.38;;
53108;SDS011;39007;53.090;6.074;2023-11-21T07:37:55;31.83;;;18.00;;
53108;SDS011;39007;53.090;6.074;2023-11-21T07:40:22;30.30;;;17.60;;
53108;SDS011;39007;53.090;6.074;2023-11-21T07:42:48;33.33;;;18.60;;
53108;SDS011;39007;53.090;6.074;2023-11-21T07:45:15;33.22;;;17.67;;
53108;SDS011;39007;53.090;6.074;2023-11-21T07:47:41;38.10;;;19.63;;
53108;SDS011;39007;53.090;6.074;2023-11-21T07:50:08;32.97;;;21.73;;
53108;SDS011;39007;53.090;6.074;2023-11-21T07:52:34;30.10;;;17.35;;
53108;SDS011;39007;53.090;6.074;2023-11-21T07:55:00;28.13;;;15.98;;
53108;SDS011;39007;53.090;6.074;2023-11-21T07:57:26;25.38;;;15.52;;
53108;SDS011;39007;53.090;6.074;2023-11-21T07:59:53;28.98;;;16.25;;
53108;SDS011;39007;53.090;6.074;2023-11-21T08:02:20;28.45;;;16.30;;
53108;SDS011;39007;53.090;6.074;2023-11-21T08:04:46;28.30;;;17.75;;
53108;SDS011;39007;53.090;6.074;2023-11-21T08:07:15;37.42;;;20.50;;
53108;SDS011;39007;53.090;6.074;2023-11-21T08:09:41;34.65;;;22.65;;
53108;SDS011;39007;53.090;6.074;2023-11-21T08:12:09;37.15;;;23.40;;
53108;SDS011;39007;53.090;6.074;2023-11-21T08:14:36;35.35;;;23.02;;
53108;SDS011;39007;53.090;6.074;2023-11-21T08:17:04;35.00;;;23.42;;
53108;SDS011;39007;53.090;6.074;2023-11-21T08:19:30;29.80;;;20.20;;
53108;SDS011;39007;53.090;6.074;2023-11-21T08:21:58;31.25;;;20.63;;
53108;SDS011;39007;53.090;6.074;2023-11-21T08:24:24;29.08;;;20.92;;
53108;SDS011;39007;53.090;6.074;2023-11-21T08:26:50;46.45;;;32.30;;
53108;SDS011;39007;53.090;6.074;2023-11-21T08:29:17;29.08;;;21.33;;
53108;SDS011;39007;53.090;6.074;2023-11-21T08:31:43;26.80;;;19.40;;
53108;SDS011;39007;53.090;6.074;2023-11-21T08:34:12;28.55;;;19.70;;
53108;SDS011;39007;53.090;6.074;2023-11-21T08:36:43;29.38;;;20.42;;
53108;SDS011;39007;53.090;6.074;2023-11-21T08:39:10;28.60;;;19.80;;
53108;SDS011;39007;53.090;6.074;2023-11-21T08:41:38;25.98;;;19.00;;
53108;SDS011;39007;53.090;6.074;2023-11-21T08:44:04;30.90;;;22.50;;
53108;SDS011;39007;53.090;6.074;2023-11-21T08:46:32;30.38;;;21.00;;
53108;SDS011;39007;53.090;6.074;2023-11-21T08:49:00;30.88;;;21.75;;
53108;SDS011;39007;53.090;6.074;2023-11-21T08:51:26;23.95;;;18.33;;
53108;SDS011;39007;53.090;6.074;2023-11-21T08:53:52;29.85;;;20.88;;
53108;SDS011;39007;53.090;6.074;2023-11-21T08:56:19;30.08;;;21.58;;
53108;SDS011;39007;53.090;6.074;2023-11-21T08:58:45;29.38;;;22.83;;
53108;SDS011;39007;53.090;6.074;2023-11-21T09:01:15;30.73;;;22.48;;
53108;SDS011;39007;53.090;6.074;2023-11-21T09:03:42;40.03;;;30.65;;
53108;SDS011;39007;53.090;6.074;2023-11-21T09:06:09;65.07;;;57.92;;
53108;SDS011;39007;53.090;6.074;2023-11-21T09:08:35;29.00;;;23.35;;
53108;SDS011;39007;53.090;6.074;2023-11-21T09:11:01;30.67;;;23.67;;
53108;SDS011;39007;53.090;6.074;2023-11-21T09:13:27;33.13;;;25.00;;
53108;SDS011;39007;53.090;6.074;2023-11-21T09:15:54;29.98;;;23.08;;
53108;SDS011;39007;53.090;6.074;2023-11-21T09:18:21;32.75;;;24.42;;
53108;SDS011;39007;53.090;6.074;2023-11-21T09:20:47;29.67;;;22.02;;
53108;SDS011;39007;53.090;6.074;2023-11-21T09:23:13;27.95;;;22.10;;
53108;SDS011;39007;53.090;6.074;2023-11-21T09:25:39;28.60;;;22.85;;
53108;SDS011;39007;53.090;6.074;2023-11-21T09:28:05;30.92;;;22.52;;
53108;SDS011;39007;53.090;6.074;2023-11-21T09:30:34;32.50;;;23.58;;
53108;SDS011;39007;53.090;6.074;2023-11-21T09:33:01;29.08;;;21.20;;
53108;SDS011;39007;53.090;6.074;2023-11-21T09:35:27;28.13;;;21.67;;
53108;SDS011;39007;53.090;6.074;2023-11-21T09:37:54;26.17;;;20.27;;
53108;SDS011;39007;53.090;6.074;2023-11-21T09:40:21;28.23;;;21.95;;
53108;SDS011;39007;53.090;6.074;2023-11-21T09:42:54;24.40;;;19.65;;
53108;SDS011;39007;53.090;6.074;2023-11-21T09:45:32;30.58;;;25.27;;
53108;SDS011;39007;53.090;6.074;2023-11-21T09:48:00;26.00;;;21.35;;
53108;SDS011;39007;53.090;6.074;2023-11-21T09:50:26;27.58;;;22.40;;
53108;SDS011;39007;53.090;6.074;2023-11-21T09:58:05;19.17;;;15.90;;
53108;SDS011;39007;53.090;6.074;2023-11-21T10:00:33;21.17;;;17.33;;
53108;SDS011;39007;53.090;6.074;2023-11-21T10:02:59;18.02;;;14.07;;
53108;SDS011;39007;53.090;6.074;2023-11-21T10:05:25;16.65;;;13.50;;
53108;SDS011;39007;53.090;6.074;2023-11-21T10:07:52;18.65;;;15.30;;
53108;SDS011;39007;53.090;6.074;2023-11-21T10:10:19;20.23;;;15.30;;
53108;SDS011;39007;53.090;6.074;2023-11-21T10:12:49;19.65;;;14.77;;
53108;SDS011;39007;53.090;6.074;2023-11-21T10:15:18;17.10;;;13.80;;
53108;SDS011;39007;53.090;6.074;2023-11-21T10:17:46;17.15;;;13.50;;
53108;SDS011;39007;53.090;6.074;2023-11-21T10:20:14;16.73;;;13.68;;
53108;SDS011;39007;53.090;6.074;2023-11-21T10:22:41;16.98;;;13.82;;
53108;SDS011;39007;53.090;6.074;2023-11-21T10:25:07;16.90;;;13.38;;
53108;SDS011;39007;53.090;6.074;2023-11-21T10:27:34;16.55;;;13.43;;
53108;SDS011;39007;53.090;6.074;2023-11-21T10:30:03;15.50;;;12.75;;
53108;SDS011;39007;53.090;6.074;2023-11-21T10:32:30;14.32;;;12.57;;
53108;SDS011;39007;53.090;6.074;2023-11-21T10:34:59;14.48;;;12.50;;
53108;SDS011;39007;53.090;6.074;2023-11-21T10:37:27;14.07;;;12.45;;
53108;SDS011;39007;53.090;6.074;2023-11-21T10:39:59;13.82;;;12.23;;
53108;SDS011;39007;53.090;6.074;2023-11-21T10:42:26;14.38;;;12.52;;
53108;SDS011;39007;53.090;6.074;2023-11-21T10:44:52;16.33;;;13.15;;
53108;SDS011;39007;53.090;6.074;2023-11-21T10:47:19;15.10;;;12.32;;
53108;SDS011;39007;53.090;6.074;2023-11-21T10:49:51;15.25;;;12.60;;
53108;SDS011;39007;53.090;6.074;2023-11-21T10:52:20;17.75;;;14.93;;
53108;SDS011;39007;53.090;6.074;2023-11-21T10:54:46;16.45;;;13.82;;
53108;SDS011;39007;53.090;6.074;2023-11-21T10:57:13;17.20;;;13.70;;
53108;SDS011;39007;53.090;6.074;2023-11-21T10:59:40;20.10;;;15.50;;
53108;SDS011;39007;53.090;6.074;2023-11-21T11:02:18;16.23;;;12.73;;
53108;SDS011;39007;53.090;6.074;2023-11-21T11:04:48;16.55;;;13.15;;
53108;SDS011;39007;53.090;6.074;2023-11-21T11:07:14;14.32;;;11.95;;
53108;SDS011;39007;53.090;6.074;2023-11-21T11:09:42;14.30;;;11.68;;
53108;SDS011;39007;53.090;6.074;2023-11-21T11:12:10;14.68;;;11.65;;
53108;SDS011;39007;53.090;6.074;2023-11-21T11:14:36;15.65;;;13.32;;
53108;SDS011;39007;53.090;6.074;2023-11-21T11:17:02;15.40;;;12.73;;
53108;SDS011;39007;53.090;6.074;2023-11-21T11:19:30;14.35;;;11.65;;
53108;SDS011;39007;53.090;6.074;2023-11-21T11:35:07;14.15;;;11.88;;
53108;SDS011;39007;53.090;6.074;2023-11-21T11:37:36;15.48;;;13.45;;
53108;SDS011;39007;53.090;6.074;2023-11-21T11:40:05;13.45;;;10.43;;
53108;SDS011;39007;53.090;6.074;2023-11-21T11:42:32;12.02;;;9.93;;
53108;SDS011;39007;53.090;6.074;2023-11-21T11:44:58;11.60;;;9.75;;
53108;SDS011;39007;53.090;6.074;2023-11-21T11:47:28;12.25;;;9.80;;
53108;SDS011;39007;53.090;6.074;2023-11-21T11:50:08;11.77;;;9.57;;
53108;SDS011;39007;53.090;6.074;2023-11-21T11:52:47;11.48;;;8.48;;
53108;SDS011;39007;53.090;6.074;2023-11-21T11:55:16;10.82;;;7.85;;
53108;SDS011;39007;53.090;6.074;2023-11-21T11:57:49;10.55;;;8.70;;
53108;SDS011;39007;53.090;6.074;2023-11-21T12:02:46;11.52;;;9.30;;
53108;SDS011;39007;53.090;6.074;2023-11-21T12:05:13;11.45;;;8.23;;
53108;SDS011;39007;53.090;6.074;2023-11-21T12:07:52;12.13;;;9.82;;
53108;SDS011;39007;53.090;6.074;2023-11-21T12:10:26;10.95;;;8.90;;
53108;SDS011;39007;53.090;6.074;2023-11-21T12:13:11;9.88;;;8.38;;
53108;SDS011;39007;53.090;6.074;2023-11-21T12:15:38;11.25;;;7.90;;
53108;SDS011;39007;53.090;6.074;2023-11-21T12:18:06;9.07;;;7.38;;
53108;SDS011;39007;53.090;6.074;2023-11-21T12:20:32;9.43;;;7.25;;
53108;SDS011;39007;53.090;6.074;2023-11-21T12:23:03;9.05;;;7.40;;
53108;SDS011;39007;53.090;6.074;2023-11-21T12:25:31;9.57;;;7.25;;
53108;SDS011;39007;53.090;6.074;2023-11-21T12:27:58;12.95;;;9.52;;
53108;SDS011;39007;53.090;6.074;2023-11-21T12:30:28;14.07;;;10.35;;
53108;SDS011;39007;53.090;6.074;2023-11-21T12:32:56;8.85;;;7.18;;
53108;SDS011;39007;53.090;6.074;2023-11-21T12:35:26;9.95;;;7.85;;
53108;SDS011;39007;53.090;6.074;2023-11-21T12:37:53;9.82;;;6.65;;
53108;SDS011;39007;53.090;6.074;2023-11-21T12:40:22;10.35;;;7.38;;
53108;SDS011;39007;53.090;6.074;2023-11-21T12:42:51;9.02;;;6.65;;
53108;SDS011;39007;53.090;6.074;2023-11-21T12:47:50;8.45;;;6.90;;
53108;SDS011;39007;53.090;6.074;2023-11-21T12:50:20;9.48;;;7.32;;
53108;SDS011;39007;53.090;6.074;2023-11-21T12:52:49;11.93;;;8.25;;
53108;SDS011;39007;53.090;6.074;2023-11-21T12:55:22;8.52;;;7.03;;
53108;SDS011;39007;53.090;6.074;2023-11-21T12:57:52;9.30;;;7.13;;
53108;SDS011;39007;53.090;6.074;2023-11-21T13:00:19;10.05;;;7.72;;
53108;SDS011;39007;53.090;6.074;2023-11-21T13:02:56;9.32;;;7.05;;
53108;SDS011;39007;53.090;6.074;2023-11-21T13:05:26;14.85;;;11.30;;
53108;SDS011;39007;53.090;6.074;2023-11-21T13:07:53;15.57;;;12.10;;
53108;SDS011;39007;53.090;6.074;2023-11-21T13:10:26;13.68;;;10.70;;
53108;SDS011;39007;53.090;6.074;2023-11-21T13:12:59;11.52;;;7.65;;
53108;SDS011;39007;53.090;6.074;2023-11-21T13:15:28;10.73;;;7.85;;
53108;SDS011;39007;53.090;6.074;2023-11-21T13:17:56;9.73;;;7.20;;
53108;SDS011;39007;53.090;6.074;2023-11-21T13:20:25;9.88;;;7.10;;
53108;SDS011;39007;53.090;6.074;2023-11-21T13:25:27;10.40;;;7.38;;
53108;SDS011;39007;53.090;6.074;2023-11-21T13:27:54;9.18;;;6.63;;
53108;SDS011;39007;53.090;6.074;2023-11-21T13:30:20;12.23;;;6.43;;
53108;SDS011;39007;53.090;6.074;2023-11-21T13:32:58;9.88;;;6.45;;
53108;SDS011;39007;53.090;6.074;2023-11-21T13:35:29;8.82;;;6.63;;
53108;SDS011;39007;53.090;6.074;2023-11-21T13:38:03;8.15;;;6.00;;
53108;SDS011;39007;53.090;6.074;2023-11-21T13:40:30;9.40;;;6.63;;
53108;SDS011;39007;53.090;6.074;2023-11-21T13:42:56;10.43;;;7.05;;
53108;SDS011;39007;53.090;6.074;2023-11-21T13:45:24;9.10;;;6.97;;
53108;SDS011;39007;53.090;6.074;2023-11-21T13:47:52;9.05;;;7.18;;
53108;SDS011;39007;53.090;6.074;2023-11-21T13:50:30;9.13;;;6.22;;
53108;SDS011;39007;53.090;6.074;2023-11-21T13:53:01;9.10;;;7.25;;
53108;SDS011;39007;53.090;6.074;2023-11-21T13:55:44;8.95;;;7.45;;
53108;SDS011;39007;53.090;6.074;2023-11-21T13:58:14;9.93;;;7.88;;
53108;SDS011;39007;53.090;6.074;2023-11-21T14:00:47;10.52;;;8.05;;
53108;SDS011;39007;53.090;6.074;2023-11-21T14:03:20;11.30;;;8.50;;
53108;SDS011;39007;53.090;6.074;2023-11-21T14:05:47;13.13;;;9.98;;
53108;SDS011;39007;53.090;6.074;2023-11-21T14:08:18;10.07;;;7.38;;
53108;SDS011;39007;53.090;6.074;2023-11-21T14:10:45;9.43;;;6.97;;
53108;SDS011;39007;53.090;6.074;2023-11-21T14:13:19;10.38;;;7.63;;
53108;SDS011;39007;53.090;6.074;2023-11-21T14:15:48;10.20;;;7.32;;
53108;SDS011;39007;53.090;6.074;2023-11-21T14:18:17;11.02;;;7.82;;
53108;SDS011;39007;53.090;6.074;2023-11-21T14:20:52;12.00;;;9.82;;
53108;SDS011;39007;53.090;6.074;2023-11-21T14:23:18;11.93;;;9.07;;
53108;SDS011;39007;53.090;6.074;2023-11-21T14:25:46;13.13;;;10.00;;
53108;SDS011;39007;53.090;6.074;2023-11-21T14:28:13;12.95;;;9.65;;
53108;SDS011;39007;53.090;6.074;2023-11-21T14:30:40;18.23;;;13.45;;
53108;SDS011;39007;53.090;6.074;2023-11-21T14:33:07;16.95;;;13.73;;
53108;SDS011;39007;53.090;6.074;2023-11-21T14:35:36;14.02;;;11.15;;
53108;SDS011;39007;53.090;6.074;2023-11-21T14:38:02;12.65;;;9.57;;
53108;SDS011;39007;53.090;6.074;2023-11-21T14:40:33;44.25;;;35.65;;
53108;SDS011;39007;53.090;6.074;2023-11-21T14:43:04;12.90;;;9.88;;
53108;SDS011;39007;53.090;6.074;2023-11-21T14:45:33;13.02;;;8.60;;
53108;SDS011;39007;53.090;6.074;2023-11-21T14:47:59;14.85;;;11.23;;
53108;SDS011;39007;53.090;6.074;2023-11-21T14:50:36;16.98;;;11.38;;
53108;SDS011;39007;53.090;6.074;2023-11-21T14:53:35;16.65;;;10.35;;
53108;SDS011;39007;53.090;6.074;2023-11-21T14:56:22;11.57;;;7.63;;
53108;SDS011;39007;53.090;6.074;2023-11-21T15:01:22;13.23;;;8.05;;